sensor_id;sensor_type;location;lat;lon;timestamp;pressure;altitude;pressure_sealevel;temperature;humidity
54806;BME280;62866;55.776;37.496;2023-05-12T00:00:40;100449.22;;;10.11;78.21
54806;BME280;62866;55.776;37.496;2023-05-12T00:03:06;100462.56;;;10.11;77.93
54806;BME280;62866;55.776;37.496;2023-05-12T00:05:31;100463.22;;;10.05;78.24
54806;BME280;62866;55.776;37.496;2023-05-12T00:07:57;100461.38;;;10.06;77.85
54806;BME280;62866;55.776;37.496;2023-05-12T00:10:23;100456.03;;;9.98;77.45
54806;BME280;62866;55.776;37.496;2023-05-12T00:12:51;100448.56;;;9.93;78.16
54806;BME280;62866;55.776;37.496;2023-05-12T00:15:16;100456.56;;;9.93;78.23
54806;BME280;62866;55.776;37.496;2023-05-12T00:17:44;100463.75;;;9.93;78.16
54806;BME280;62866;55.776;37.496;2023-05-12T00:20:10;100471.91;;;9.91;78.13
54806;BME280;62866;55.776;37.496;2023-05-12T00:22:35;100449.41;;;9.85;78.38
54806;BME280;62866;55.776;37.496;2023-05-12T00:25:01;100463.59;;;9.86;78.52
54806;BME280;62866;55.776;37.496;2023-05-12T00:27:27;100459.41;;;9.83;78.61
54806;BME280;62866;55.776;37.496;2023-05-12T00:29:53;100459.25;;;9.77;78.87
54806;BME280;62866;55.776;37.496;2023-05-12T00:32:19;100456.72;;;9.75;78.56
54806;BME280;62866;55.776;37.496;2023-05-12T00:34:44;100455.06;;;9.74;78.57
54806;BME280;62866;55.776;37.496;2023-05-12T00:37:10;100451.41;;;9.67;78.51
54806;BME280;62866;55.776;37.496;2023-05-12T00:39:35;100452.91;;;9.70;78.11
54806;BME280;62866;55.776;37.496;2023-05-12T00:42:02;100459.25;;;9.69;78.66
54806;BME280;62866;55.776;37.496;2023-05-12T00:44:27;100426.84;;;9.47;78.64
54806;BME280;62866;55.776;37.496;2023-05-12T00:46:53;100454.53;;;9.63;78.06
54806;BME280;62866;55.776;37.496;2023-05-12T00:49:19;100434.00;;;9.47;78.54
54806;BME280;62866;55.776;37.496;2023-05-12T00:51:45;100448.72;;;9.59;78.98
54806;BME280;62866;55.776;37.496;2023-05-12T00:54:11;100454.53;;;9.55;78.95
54806;BME280;62866;55.776;37.496;2023-05-12T00:56:37;100452.06;;;9.53;78.86
54806;BME280;62866;55.776;37.496;2023-05-12T00:59:06;100421.19;;;9.34;79.61
54806;BME280;62866;55.776;37.496;2023-05-12T01:01:32;100449.88;;;9.48;79.34
54806;BME280;62866;55.776;37.496;2023-05-12T01:03:59;100449.38;;;9.45;79.54
54806;BME280;62866;55.776;37.496;2023-05-12T01:06:29;100447.56;;;9.45;79.53
54806;BME280;62866;55.776;37.496;2023-05-12T01:08:57;100448.88;;;9.41;79.40
54806;BME280;62866;55.776;37.496;2023-05-12T01:11:23;100425.66;;;9.26;79.35
54806;BME280;62866;55.776;37.496;2023-05-12T01:13:49;100436.66;;;9.31;79.13
54806;BME280;62866;55.776;37.496;2023-05-12T01:16:18;100445.19;;;9.34;79.45
54806;BME280;62866;55.776;37.496;2023-05-12T01:18:49;100446.19;;;9.33;79.59
54806;BME280;62866;55.776;37.496;2023-05-12T01:21:18;100444.50;;;9.32;79.83
54806;BME280;62866;55.776;37.496;2023-05-12T01:23:48;100431.16;;;9.24;79.53
54806;BME280;62866;55.776;37.496;2023-05-12T01:26:16;100442.00;;;9.31;79.54
54806;BME280;62866;55.776;37.496;2023-05-12T01:28:42;100438.50;;;9.30;79.58
54806;BME280;62866;55.776;37.496;2023-05-12T01:31:08;100427.19;;;9.28;79.61
54806;BME280;62866;55.776;37.496;2023-05-12T01:33:34;100445.50;;;9.31;79.87
54806;BME280;62866;55.776;37.496;2023-05-12T01:36:00;100436.34;;;9.26;79.78
54806;BME280;62866;55.776;37.496;2023-05-12T01:38:26;100440.16;;;9.31;79.87
54806;BME280;62866;55.776;37.496;2023-05-12T01:40:51;100418.97;;;9.22;79.46
54806;BME280;62866;55.776;37.496;2023-05-12T01:43:17;100433.50;;;9.27;79.99
54806;BME280;62866;55.776;37.496;2023-05-12T01:45:42;100436.34;;;9.26;80.24
54806;BME280;62866;55.776;37.496;2023-05-12T01:48:08;100430.34;;;9.32;80.23
54806;BME280;62866;55.776;37.496;2023-05-12T01:50:33;100432.31;;;9.30;79.80
54806;BME280;62866;55.776;37.496;2023-05-12T01:53:00;100413.16;;;9.18;79.91
54806;BME280;62866;55.776;37.496;2023-05-12T01:55:25;100439.50;;;9.37;79.67
54806;BME280;62866;55.776;37.496;2023-05-12T01:57:51;100438.88;;;9.35;79.36
54806;BME280;62866;55.776;37.496;2023-05-12T02:00:16;100449.88;;;9.40;79.26
54806;BME280;62866;55.776;37.496;2023-05-12T02:02:42;100443.53;;;9.41;79.60
54806;BME280;62866;55.776;37.496;2023-05-12T02:05:08;100447.88;;;9.42;79.36
54806;BME280;62866;55.776;37.496;2023-05-12T02:07:33;100437.50;;;9.39;79.51
54806;BME280;62866;55.776;37.496;2023-05-12T02:09:59;100439.03;;;9.42;79.92
54806;BME280;62866;55.776;37.496;2023-05-12T02:12:24;100448.88;;;9.49;80.04
54806;BME280;62866;55.776;37.496;2023-05-12T02:14:50;100445.38;;;9.49;79.29
54806;BME280;62866;55.776;37.496;2023-05-12T02:17:16;100450.03;;;9.55;79.41
54806;BME280;62866;55.776;37.496;2023-05-12T02:19:41;100452.22;;;9.60;79.12
54806;BME280;62866;55.776;37.496;2023-05-12T02:22:07;100438.03;;;9.59;79.40
54806;BME280;62866;55.776;37.496;2023-05-12T02:24:33;100454.75;;;9.69;79.39
54806;BME280;62866;55.776;37.496;2023-05-12T02:26:58;100453.38;;;9.73;79.46
54806;BME280;62866;55.776;37.496;2023-05-12T02:29:24;100439.19;;;9.73;79.26
54806;BME280;62866;55.776;37.496;2023-05-12T02:31:50;100442.88;;;9.80;79.29
54806;BME280;62866;55.776;37.496;2023-05-12T02:34:15;100450.88;;;9.88;78.89
54806;BME280;62866;55.776;37.496;2023-05-12T02:36:41;100443.88;;;9.95;78.99
54806;BME280;62866;55.776;37.496;2023-05-12T02:39:07;100451.22;;;10.01;78.84
54806;BME280;62866;55.776;37.496;2023-05-12T02:41:32;100447.03;;;10.07;78.60
54806;BME280;62866;55.776;37.496;2023-05-12T02:43:58;100447.19;;;10.13;78.56
54806;BME280;62866;55.776;37.496;2023-05-12T02:46:23;100451.91;;;10.19;78.30
54806;BME280;62866;55.776;37.496;2023-05-12T02:48:49;100458.06;;;10.28;78.41
54806;BME280;62866;55.776;37.496;2023-05-12T02:51:14;100459.53;;;10.31;78.11
54806;BME280;62866;55.776;37.496;2023-05-12T02:53:40;100442.22;;;10.18;77.99
54806;BME280;62866;55.776;37.496;2023-05-12T02:56:06;100462.72;;;10.34;77.98
54806;BME280;62866;55.776;37.496;2023-05-12T02:58:32;100448.66;;;10.40;77.86
54806;BME280;62866;55.776;37.496;2023-05-12T03:00:58;100467.69;;;10.53;77.70
54806;BME280;62866;55.776;37.496;2023-05-12T03:03:23;100462.13;;;10.63;77.49
54806;BME280;62866;55.776;37.496;2023-05-12T03:05:49;100460.91;;;10.74;77.16
54806;BME280;62866;55.776;37.496;2023-05-12T03:08:15;100468.03;;;10.89;76.26
54806;BME280;62866;55.776;37.496;2023-05-12T03:10:41;100462.84;;;10.96;76.20
54806;BME280;62866;55.776;37.496;2023-05-12T03:13:08;100464.44;;;11.05;76.23
54806;BME280;62866;55.776;37.496;2023-05-12T03:15:33;100465.44;;;11.12;75.17
54806;BME280;62866;55.776;37.496;2023-05-12T03:18:00;100460.53;;;11.16;75.42
54806;BME280;62866;55.776;37.496;2023-05-12T03:20:26;100465.38;;;11.20;75.52
54806;BME280;62866;55.776;37.496;2023-05-12T03:22:52;100456.81;;;11.25;75.45
54806;BME280;62866;55.776;37.496;2023-05-12T03:25:17;100449.63;;;11.25;75.47
54806;BME280;62866;55.776;37.496;2023-05-12T03:27:43;100471.94;;;11.40;75.37
54806;BME280;62866;55.776;37.496;2023-05-12T03:30:09;100456.03;;;11.39;75.07
54806;BME280;62866;55.776;37.496;2023-05-12T03:32:35;100457.84;;;11.47;75.14
54806;BME280;62866;55.776;37.496;2023-05-12T03:35:04;100456.47;;;11.51;74.93
54806;BME280;62866;55.776;37.496;2023-05-12T03:37:29;100451.28;;;11.49;74.46
54806;BME280;62866;55.776;37.496;2023-05-12T03:39:55;100468.25;;;11.64;74.74
54806;BME280;62866;55.776;37.496;2023-05-12T03:42:21;100446.81;;;11.64;74.69
54806;BME280;62866;55.776;37.496;2023-05-12T03:44:50;100452.97;;;11.73;74.38
54806;BME280;62866;55.776;37.496;2023-05-12T03:47:15;100454.41;;;11.84;73.51
54806;BME280;62866;55.776;37.496;2023-05-12T03:49:41;100454.06;;;11.87;73.77
54806;BME280;62866;55.776;37.496;2023-05-12T03:52:06;100457.97;;;11.99;73.03
54806;BME280;62866;55.776;37.496;2023-05-12T03:54:32;100462.41;;;12.06;72.05
54806;BME280;62866;55.776;37.496;2023-05-12T03:56:58;100460.50;;;12.15;71.79
54806;BME280;62866;55.776;37.496;2023-05-12T03:59:23;100452.84;;;12.27;71.13
54806;BME280;62866;55.776;37.496;2023-05-12T04:01:51;100462.47;;;12.36;70.33
54806;BME280;62866;55.776;37.496;2023-05-12T04:04:17;100456.63;;;12.47;69.43
54806;BME280;62866;55.776;37.496;2023-05-12T04:06:43;100454.25;;;12.52;69.08
54806;BME280;62866;55.776;37.496;2023-05-12T04:09:09;100459.16;;;12.63;68.64
54806;BME280;62866;55.776;37.496;2023-05-12T04:11:35;100442.13;;;12.71;68.66
54806;BME280;62866;55.776;37.496;2023-05-12T04:14:01;100427.78;;;12.64;68.25
54806;BME280;62866;55.776;37.496;2023-05-12T04:16:26;100451.66;;;12.88;68.09
54806;BME280;62866;55.776;37.496;2023-05-12T04:18:52;100426.09;;;12.92;66.84
54806;BME280;62866;55.776;37.496;2023-05-12T04:21:18;100444.66;;;13.08;66.43
54806;BME280;62866;55.776;37.496;2023-05-12T04:23:43;100433.81;;;13.16;65.77
54806;BME280;62866;55.776;37.496;2023-05-12T04:26:09;100410.97;;;13.20;65.68
54806;BME280;62866;55.776;37.496;2023-05-12T04:28:35;100441.81;;;13.46;65.07
54806;BME280;62866;55.776;37.496;2023-05-12T04:31:04;100438.06;;;13.68;63.96
54806;BME280;62866;55.776;37.496;2023-05-12T04:33:30;100430.75;;;13.83;63.46
54806;BME280;62866;55.776;37.496;2023-05-12T04:35:56;100443.31;;;13.97;63.84
54806;BME280;62866;55.776;37.496;2023-05-12T04:38:21;100434.03;;;14.06;63.39
54806;BME280;62866;55.776;37.496;2023-05-12T04:40:47;100429.56;;;14.14;62.57
54806;BME280;62866;55.776;37.496;2023-05-12T04:43:12;100448.44;;;14.20;62.39
54806;BME280;62866;55.776;37.496;2023-05-12T04:45:38;100443.97;;;14.34;62.30
54806;BME280;62866;55.776;37.496;2023-05-12T04:48:04;100447.03;;;14.52;61.53
54806;BME280;62866;55.776;37.496;2023-05-12T04:50:30;100421.97;;;14.24;62.20
54806;BME280;62866;55.776;37.496;2023-05-12T04:52:55;100438.72;;;14.47;62.10
54806;BME280;62866;55.776;37.496;2023-05-12T04:55:21;100447.34;;;14.70;61.37
54806;BME280;62866;55.776;37.496;2023-05-12T04:57:46;100445.78;;;14.89;60.45
54806;BME280;62866;55.776;37.496;2023-05-12T05:00:13;100451.19;;;14.96;60.18
54806;BME280;62866;55.776;37.496;2023-05-12T05:02:39;100439.22;;;15.05;60.01
54806;BME280;62866;55.776;37.496;2023-05-12T05:05:06;100422.03;;;15.12;59.32
54806;BME280;62866;55.776;37.496;2023-05-12T05:07:31;100423.47;;;15.15;58.61
54806;BME280;62866;55.776;37.496;2023-05-12T05:09:57;100443.69;;;15.52;58.27
54806;BME280;62866;55.776;37.496;2023-05-12T05:12:23;100434.19;;;15.76;58.03
54806;BME280;62866;55.776;37.496;2023-05-12T05:14:49;100430.28;;;15.98;57.15
54806;BME280;62866;55.776;37.496;2023-05-12T05:17:15;100426.53;;;16.12;56.63
54806;BME280;62866;55.776;37.496;2023-05-12T05:19:41;100434.81;;;16.30;56.52
54806;BME280;62866;55.776;37.496;2023-05-12T05:22:06;100435.84;;;16.29;55.95
54806;BME280;62866;55.776;37.496;2023-05-12T05:24:32;100438.31;;;16.38;56.48
54806;BME280;62866;55.776;37.496;2023-05-12T05:26:57;100432.72;;;16.46;55.93
54806;BME280;62866;55.776;37.496;2023-05-12T05:29:23;100443.66;;;16.57;56.03
54806;BME280;62866;55.776;37.496;2023-05-12T05:31:50;100429.78;;;16.41;55.83
54806;BME280;62866;55.776;37.496;2023-05-12T05:34:16;100435.78;;;16.49;55.79
54806;BME280;62866;55.776;37.496;2023-05-12T05:36:42;100436.19;;;16.66;55.51
54806;BME280;62866;55.776;37.496;2023-05-12T05:39:08;100440.50;;;16.87;54.59
54806;BME280;62866;55.776;37.496;2023-05-12T05:41:34;100428.22;;;16.97;54.62
54806;BME280;62866;55.776;37.496;2023-05-12T05:44:00;100435.84;;;17.07;54.63
54806;BME280;62866;55.776;37.496;2023-05-12T05:46:25;100435.75;;;17.27;54.17
54806;BME280;62866;55.776;37.496;2023-05-12T05:48:51;100438.97;;;17.42;53.42
54806;BME280;62866;55.776;37.496;2023-05-12T05:51:16;100435.41;;;17.48;53.23
54806;BME280;62866;55.776;37.496;2023-05-12T05:53:42;100422.69;;;17.55;53.17
54806;BME280;62866;55.776;37.496;2023-05-12T05:56:07;100429.91;;;17.61;53.22
54806;BME280;62866;55.776;37.496;2023-05-12T05:58:33;100420.13;;;17.60;53.17
54806;BME280;62866;55.776;37.496;2023-05-12T06:00:59;100423.56;;;17.80;52.88
54806;BME280;62866;55.776;37.496;2023-05-12T06:03:24;100411.84;;;17.87;52.63
54806;BME280;62866;55.776;37.496;2023-05-12T06:05:50;100420.13;;;18.16;52.00
54806;BME280;62866;55.776;37.496;2023-05-12T06:08:15;100425.97;;;18.38;51.52
54806;BME280;62866;55.776;37.496;2023-05-12T06:10:41;100410.06;;;18.42;51.04
54806;BME280;62866;55.776;37.496;2023-05-12T06:13:07;100434.50;;;18.60;51.39
54806;BME280;62866;55.776;37.496;2023-05-12T06:15:32;100429.28;;;18.58;51.15
54806;BME280;62866;55.776;37.496;2023-05-12T06:17:58;100431.97;;;18.65;51.35
54806;BME280;62866;55.776;37.496;2023-05-12T06:20:23;100418.63;;;18.82;50.17
54806;BME280;62866;55.776;37.496;2023-05-12T06:22:50;100435.09;;;20.00;48.30
54806;BME280;62866;55.776;37.496;2023-05-12T06:25:15;100410.25;;;21.75;45.34
54806;BME280;62866;55.776;37.496;2023-05-12T06:27:41;100419.56;;;24.24;41.28
54806;BME280;62866;55.776;37.496;2023-05-12T06:30:07;100418.53;;;26.35;37.87
54806;BME280;62866;55.776;37.496;2023-05-12T06:32:33;100403.00;;;26.80;37.30
54806;BME280;62866;55.776;37.496;2023-05-12T06:34:59;100413.88;;;26.11;38.35
54806;BME280;62866;55.776;37.496;2023-05-12T06:37:24;100425.69;;;25.86;38.13
54806;BME280;62866;55.776;37.496;2023-05-12T06:39:50;100402.50;;;24.53;40.35
54806;BME280;62866;55.776;37.496;2023-05-12T06:42:16;100423.03;;;23.82;40.71
54806;BME280;62866;55.776;37.496;2023-05-12T06:44:42;100420.00;;;23.25;41.11
54806;BME280;62866;55.776;37.496;2023-05-12T06:47:07;100399.97;;;22.70;42.00
54806;BME280;62866;55.776;37.496;2023-05-12T06:49:33;100408.47;;;22.36;42.05
54806;BME280;62866;55.776;37.496;2023-05-12T06:52:02;100411.22;;;21.85;41.70
54806;BME280;62866;55.776;37.496;2023-05-12T06:54:27;100402.50;;;21.38;43.13
54806;BME280;62866;55.776;37.496;2023-05-12T06:56:53;100404.84;;;21.18;42.06
54806;BME280;62866;55.776;37.496;2023-05-12T06:59:18;100402.53;;;20.98;43.24
54806;BME280;62866;55.776;37.496;2023-05-12T07:01:44;100400.28;;;20.95;42.16
54806;BME280;62866;55.776;37.496;2023-05-12T07:04:09;100411.53;;;20.99;42.02
54806;BME280;62866;55.776;37.496;2023-05-12T07:06:35;100411.50;;;21.39;41.03
54806;BME280;62866;55.776;37.496;2023-05-12T07:09:01;100405.47;;;21.37;41.16
54806;BME280;62866;55.776;37.496;2023-05-12T07:11:26;100415.03;;;21.39;40.83
54806;BME280;62866;55.776;37.496;2023-05-12T07:13:52;100399.78;;;21.38;41.34
54806;BME280;62866;55.776;37.496;2023-05-12T07:16:18;100390.56;;;21.39;40.87
54806;BME280;62866;55.776;37.496;2023-05-12T07:18:44;100401.97;;;21.70;39.57
54806;BME280;62866;55.776;37.496;2023-05-12T07:21:10;100376.78;;;22.29;39.12
54806;BME280;62866;55.776;37.496;2023-05-12T07:23:36;100394.75;;;23.93;36.73
54806;BME280;62866;55.776;37.496;2023-05-12T07:26:03;100402.88;;;25.55;33.54
54806;BME280;62866;55.776;37.496;2023-05-12T07:28:30;100388.88;;;26.53;32.84
54806;BME280;62866;55.776;37.496;2023-05-12T07:30:57;100391.41;;;25.73;33.96
54806;BME280;62866;55.776;37.496;2023-05-12T07:33:23;100386.34;;;25.04;33.99
54806;BME280;62866;55.776;37.496;2023-05-12T07:35:49;100395.69;;;24.51;34.53
54806;BME280;62866;55.776;37.496;2023-05-12T07:38:15;100368.34;;;24.09;31.35
54806;BME280;62866;55.776;37.496;2023-05-12T07:40:40;100398.47;;;23.82;30.85
54806;BME280;62866;55.776;37.496;2023-05-12T07:43:06;100402.88;;;23.56;29.74
54806;BME280;62866;55.776;37.496;2023-05-12T07:45:32;100385.66;;;23.29;28.53
54806;BME280;62866;55.776;37.496;2023-05-12T07:47:57;100391.44;;;22.84;29.73
54806;BME280;62866;55.776;37.496;2023-05-12T07:50:23;100376.94;;;22.40;29.71
54806;BME280;62866;55.776;37.496;2023-05-12T07:52:50;100385.06;;;22.18;29.07
54806;BME280;62866;55.776;37.496;2023-05-12T07:55:17;100398.13;;;21.99;29.88
54806;BME280;62866;55.776;37.496;2023-05-12T07:57:43;100385.88;;;21.85;29.82
54806;BME280;62866;55.776;37.496;2023-05-12T08:00:09;100382.03;;;21.98;29.57
54806;BME280;62866;55.776;37.496;2023-05-12T08:02:40;100390.22;;;22.36;30.02
54806;BME280;62866;55.776;37.496;2023-05-12T08:05:07;100386.97;;;22.56;28.91
54806;BME280;62866;55.776;37.496;2023-05-12T08:07:36;100397.31;;;22.97;28.21
54806;BME280;62866;55.776;37.496;2023-05-12T08:10:05;100406.91;;;23.49;27.85
54806;BME280;62866;55.776;37.496;2023-05-12T08:12:32;100390.94;;;23.99;26.38
54806;BME280;62866;55.776;37.496;2023-05-12T08:14:58;100386.22;;;25.92;26.16
54806;BME280;62866;55.776;37.496;2023-05-12T08:17:23;100379.59;;;28.15;22.88
54806;BME280;62866;55.776;37.496;2023-05-12T08:19:49;100385.50;;;30.25;21.93
54806;BME280;62866;55.776;37.496;2023-05-12T08:22:15;100373.34;;;31.66;20.94
54806;BME280;62866;55.776;37.496;2023-05-12T08:24:41;100379.53;;;32.95;20.30
54806;BME280;62866;55.776;37.496;2023-05-12T08:27:06;100371.50;;;34.61;19.77
54806;BME280;62866;55.776;37.496;2023-05-12T08:29:32;100363.75;;;36.12;19.34
54806;BME280;62866;55.776;37.496;2023-05-12T08:31:57;100357.91;;;37.27;19.23
54806;BME280;62866;55.776;37.496;2023-05-12T08:34:24;100370.19;;;36.85;19.14
54806;BME280;62866;55.776;37.496;2023-05-12T08:36:53;100360.91;;;37.34;18.18
54806;BME280;62866;55.776;37.496;2023-05-12T08:39:20;100360.31;;;36.88;18.46
54806;BME280;62866;55.776;37.496;2023-05-12T08:44:41;100354.78;;;33.59;20.67
54806;BME280;62866;55.776;37.496;2023-05-12T08:47:08;100368.72;;;31.75;21.19
54806;BME280;62866;55.776;37.496;2023-05-12T08:49:35;100348.63;;;29.88;22.17
54806;BME280;62866;55.776;37.496;2023-05-12T08:52:03;100361.38;;;28.48;22.63
54806;BME280;62866;55.776;37.496;2023-05-12T08:54:29;100326.00;;;28.17;22.67
54806;BME280;62866;55.776;37.496;2023-05-12T08:56:55;100351.63;;;27.45;23.38
54806;BME280;62866;55.776;37.496;2023-05-12T08:59:22;100358.56;;;26.93;23.84
54806;BME280;62866;55.776;37.496;2023-05-12T09:01:49;100334.16;;;25.92;24.86
54806;BME280;62866;55.776;37.496;2023-05-12T09:04:15;100349.19;;;25.23;25.44
54806;BME280;62866;55.776;37.496;2023-05-12T09:06:45;100353.44;;;24.84;25.88
54806;BME280;62866;55.776;37.496;2023-05-12T09:09:15;100341.06;;;24.19;26.35
54806;BME280;62866;55.776;37.496;2023-05-12T09:11:41;100359.41;;;23.81;26.75
54806;BME280;62866;55.776;37.496;2023-05-12T09:14:17;100330.63;;;23.10;26.61
54806;BME280;62866;55.776;37.496;2023-05-12T09:16:47;100352.50;;;22.88;27.16
54806;BME280;62866;55.776;37.496;2023-05-12T09:19:19;100346.66;;;22.58;27.37
54806;BME280;62866;55.776;37.496;2023-05-12T09:21:46;100343.59;;;22.54;27.70
54806;BME280;62866;55.776;37.496;2023-05-12T09:24:12;100353.22;;;22.62;27.44
54806;BME280;62866;55.776;37.496;2023-05-12T09:26:49;100337.56;;;22.52;27.65
54806;BME280;62866;55.776;37.496;2023-05-12T09:29:15;100342.53;;;22.55;27.52
54806;BME280;62866;55.776;37.496;2023-05-12T09:31:55;100349.28;;;22.91;27.65
54806;BME280;62866;55.776;37.496;2023-05-12T09:34:27;100329.03;;;23.14;26.72
54806;BME280;62866;55.776;37.496;2023-05-12T09:36:58;100345.41;;;23.14;27.06
54806;BME280;62866;55.776;37.496;2023-05-12T09:39:24;100335.94;;;22.73;27.48
54806;BME280;62866;55.776;37.496;2023-05-12T09:41:50;100340.31;;;22.30;27.49
54806;BME280;62866;55.776;37.496;2023-05-12T09:44:17;100334.13;;;22.18;27.69
54806;BME280;62866;55.776;37.496;2023-05-12T09:46:43;100335.63;;;22.48;27.34
54806;BME280;62866;55.776;37.496;2023-05-12T09:49:09;100318.25;;;22.54;27.86
54806;BME280;62866;55.776;37.496;2023-05-12T09:51:34;100331.31;;;22.52;28.47
54806;BME280;62866;55.776;37.496;2023-05-12T09:54:01;100338.50;;;22.80;27.77
54806;BME280;62866;55.776;37.496;2023-05-12T09:56:28;100315.03;;;22.79;27.43
54806;BME280;62866;55.776;37.496;2023-05-12T09:58:55;100327.44;;;23.18;26.26
54806;BME280;62866;55.776;37.496;2023-05-12T10:01:25;100294.25;;;23.26;27.04
54806;BME280;62866;55.776;37.496;2023-05-12T10:03:53;100321.81;;;23.30;27.02
54806;BME280;62866;55.776;37.496;2023-05-12T10:06:25;100317.78;;;23.05;28.20
54806;BME280;62866;55.776;37.496;2023-05-12T10:11:39;100317.34;;;22.26;28.13
54806;BME280;62866;55.776;37.496;2023-05-12T10:14:05;100320.47;;;21.96;27.98
54806;BME280;62866;55.776;37.496;2023-05-12T10:16:34;100303.50;;;21.73;28.34
54806;BME280;62866;55.776;37.496;2023-05-12T10:19:01;100308.53;;;21.64;29.22
54806;BME280;62866;55.776;37.496;2023-05-12T10:21:28;100320.97;;;21.60;28.79
54806;BME280;62866;55.776;37.496;2023-05-12T10:23:53;100319.59;;;21.57;29.31
54806;BME280;62866;55.776;37.496;2023-05-12T10:26:20;100320.69;;;21.95;29.19
54806;BME280;62866;55.776;37.496;2023-05-12T10:28:46;100308.25;;;22.16;28.75
54806;BME280;62866;55.776;37.496;2023-05-12T10:31:13;100312.69;;;22.22;29.18
54806;BME280;62866;55.776;37.496;2023-05-12T10:33:39;100313.75;;;22.21;28.55
54806;BME280;62866;55.776;37.496;2023-05-12T10:36:15;100313.44;;;22.17;30.05
54806;BME280;62866;55.776;37.496;2023-05-12T10:38:41;100313.06;;;22.09;28.85
54806;BME280;62866;55.776;37.496;2023-05-12T10:41:06;100307.50;;;22.04;29.75
54806;BME280;62866;55.776;37.496;2023-05-12T10:43:40;100315.59;;;22.15;29.74
54806;BME280;62866;55.776;37.496;2023-05-12T10:46:18;100319.13;;;22.16;28.77
54806;BME280;62866;55.776;37.496;2023-05-12T10:48:59;100312.28;;;21.96;29.14
54806;BME280;62866;55.776;37.496;2023-05-12T10:51:46;100289.06;;;21.72;29.00
54806;BME280;62866;55.776;37.496;2023-05-12T10:54:21;100322.78;;;21.71;28.34
54806;BME280;62866;55.776;37.496;2023-05-12T10:56:48;100306.88;;;21.46;29.34
54806;BME280;62866;55.776;37.496;2023-05-12T11:02:03;100323.03;;;21.36;30.00
54806;BME280;62866;55.776;37.496;2023-05-12T11:07:15;100299.47;;;21.42;28.91
54806;BME280;62866;55.776;37.496;2023-05-12T11:09:42;100316.53;;;21.54;28.79
54806;BME280;62866;55.776;37.496;2023-05-12T11:12:09;100314.22;;;21.63;29.20
54806;BME280;62866;55.776;37.496;2023-05-12T11:14:37;100302.91;;;21.71;29.52
54806;BME280;62866;55.776;37.496;2023-05-12T11:17:03;100305.16;;;21.74;29.64
54806;BME280;62866;55.776;37.496;2023-05-12T11:19:29;100296.41;;;21.72;28.85
54806;BME280;62866;55.776;37.496;2023-05-12T11:21:55;100309.59;;;21.80;29.28
54806;BME280;62866;55.776;37.496;2023-05-12T11:24:21;100299.28;;;21.82;29.21
54806;BME280;62866;55.776;37.496;2023-05-12T11:26:47;100298.13;;;21.78;28.96
54806;BME280;62866;55.776;37.496;2023-05-12T11:29:19;100304.50;;;22.00;28.65
54806;BME280;62866;55.776;37.496;2023-05-12T11:31:49;100300.50;;;22.08;28.66
54806;BME280;62866;55.776;37.496;2023-05-12T11:34:20;100287.72;;;22.08;28.53
54806;BME280;62866;55.776;37.496;2023-05-12T11:36:46;100294.56;;;22.32;27.83
54806;BME280;62866;55.776;37.496;2023-05-12T11:39:18;100254.72;;;22.05;28.67
54806;BME280;62866;55.776;37.496;2023-05-12T11:41:45;100288.75;;;22.24;27.88
54806;BME280;62866;55.776;37.496;2023-05-12T11:44:18;100276.25;;;22.28;28.60
54806;BME280;62866;55.776;37.496;2023-05-12T11:47:10;100294.38;;;22.39;28.18
54806;BME280;62866;55.776;37.496;2023-05-12T11:49:49;100261.56;;;22.29;28.41
54806;BME280;62866;55.776;37.496;2023-05-12T11:52:15;100285.19;;;22.45;29.13
54806;BME280;62866;55.776;37.496;2023-05-12T11:54:54;100273.69;;;22.43;28.97
54806;BME280;62866;55.776;37.496;2023-05-12T11:57:28;100275.56;;;22.38;29.10
54806;BME280;62866;55.776;37.496;2023-05-12T12:00:03;100270.50;;;22.24;28.19
54806;BME280;62866;55.776;37.496;2023-05-12T12:02:29;100252.19;;;21.98;28.45
54806;BME280;62866;55.776;37.496;2023-05-12T12:04:55;100261.47;;;22.02;28.86
54806;BME280;62866;55.776;37.496;2023-05-12T12:07:34;100262.06;;;22.04;29.51
54806;BME280;62866;55.776;37.496;2023-05-12T12:10:13;100271.53;;;22.02;29.56
54806;BME280;62866;55.776;37.496;2023-05-12T12:12:40;100274.84;;;22.04;29.57
54806;BME280;62866;55.776;37.496;2023-05-12T12:15:06;100274.94;;;22.09;28.99
54806;BME280;62866;55.776;37.496;2023-05-12T12:17:32;100258.97;;;22.17;29.44
54806;BME280;62866;55.776;37.496;2023-05-12T12:19:57;100256.69;;;22.31;28.52
54806;BME280;62866;55.776;37.496;2023-05-12T12:22:23;100273.00;;;22.53;28.91
54806;BME280;62866;55.776;37.496;2023-05-12T12:24:48;100258.38;;;22.59;29.34
54806;BME280;62866;55.776;37.496;2023-05-12T12:27:14;100263.03;;;22.63;30.42
54806;BME280;62866;55.776;37.496;2023-05-12T12:29:40;100253.31;;;22.46;29.14
54806;BME280;62866;55.776;37.496;2023-05-12T12:32:06;100271.56;;;22.45;29.51
54806;BME280;62866;55.776;37.496;2023-05-12T12:34:32;100261.03;;;22.54;29.32
54806;BME280;62866;55.776;37.496;2023-05-12T12:36:58;100257.56;;;22.58;28.97
54806;BME280;62866;55.776;37.496;2023-05-12T12:39:23;100253.09;;;22.52;29.60
54806;BME280;62866;55.776;37.496;2023-05-12T12:41:49;100253.63;;;22.49;30.43
54806;BME280;62866;55.776;37.496;2023-05-12T12:44:15;100244.69;;;22.54;29.33
54806;BME280;62866;55.776;37.496;2023-05-12T12:46:40;100219.13;;;22.33;29.64
54806;BME280;62866;55.776;37.496;2023-05-12T12:49:06;100241.78;;;22.39;29.34
54806;BME280;62866;55.776;37.496;2023-05-12T12:51:31;100249.19;;;22.43;29.48